Time;durP1;ratioP1;P1;durP2;ratioP2;P2;SDS_P1;SDS_P2;PMS_P1;PMS_P2;Temp;Humidity;BMP_temperature;BMP_pressure;BME280_temperature;BME280_humidity;BME280_pressure;Samples;Min_cycle;Max_cycle;Signal;HPM_P1;HPM_P2
2022/04/08 00:02:52;;;;;;;3.22;0.93;;;;;;;12.20;65.24;96546.22;4136777;85;21075;-85
2022/04/08 00:08:54;;;;;;;1.25;0.62;;;;;;;12.13;66.66;96562.30;4136598;85;21007;-85
2022/04/08 00:14:56;;;;;;;2.85;0.88;;;;;;;12.11;65.58;96566.68;4141036;85;21926;-85
2022/04/08 00:20:59;;;;;;;1.65;0.72;;;;;;;12.08;66.01;96562.86;4123565;85;21504;-85
2022/04/08 00:27:00;;;;;;;1.22;0.53;;;;;;;12.05;66.01;96565.11;4144871;85;21574;-84
2022/04/08 00:33:03;;;;;;;2.15;0.47;;;;;;;11.90;67.17;96575.62;4112317;85;21020;-85
2022/04/08 00:39:05;;;;;;;2.70;0.80;;;;;;;11.79;67.53;96560.12;4149442;85;21031;-85
2022/04/08 00:45:10;;;;;;;1.77;0.50;;;;;;;11.70;67.67;96573.11;4116973;85;21066;-85
2022/04/08 00:51:14;;;;;;;1.27;0.55;;;;;;;11.62;68.34;96618.34;4131939;85;21222;-85
2022/04/08 00:57:15;;;;;;;3.62;0.90;;;;;;;11.40;69.65;96632.52;4147358;85;21043;-86
2022/04/08 01:03:17;;;;;;;3.87;1.10;;;;;;;11.13;74.35;96632.91;4150050;85;21027;-85
2022/04/08 01:09:19;;;;;;;2.47;1.20;;;;;;;10.79;74.23;96675.73;4128491;85;21579;-84
2022/04/08 01:15:23;;;;;;;4.97;1.40;;;;;;;10.55;73.61;96713.48;4116741;85;21571;-85
2022/04/08 01:21:24;;;;;;;3.75;1.60;;;;;;;10.56;76.18;96725.17;4122311;85;21055;-86
2022/04/08 01:27:26;;;;;;;3.65;1.20;;;;;;;10.38;75.17;96754.31;4162390;85;21043;-85
2022/04/08 01:33:27;;;;;;;4.08;1.60;;;;;;;10.29;78.39;96741.84;4139679;85;21146;-86
2022/04/08 01:39:28;;;;;;;1.57;1.12;;;;;;;10.06;76.54;96750.75;4148251;85;21027;-85
2022/04/08 01:45:30;;;;;;;3.15;1.62;;;;;;;10.05;78.76;96751.95;4149534;85;21038;-85
2022/04/08 01:51:31;;;;;;;4.60;1.77;;;;;;;9.79;79.59;96759.15;4026226;86;21497;-85
2022/04/08 01:57:33;;;;;;;6.10;1.50;;;;;;;9.72;78.16;96764.00;4027909;87;21086;-85
2022/04/08 02:03:35;;;;;;;2.27;0.80;;;;;;;9.67;80.74;96758.44;4044096;87;21167;-85
2022/04/08 02:09:36;;;;;;;2.12;1.10;;;;;;;9.47;79.09;96757.69;4171122;85;21562;-85
2022/04/08 02:15:37;;;;;;;3.72;1.20;;;;;;;9.26;78.77;96762.19;4148014;85;21575;-84
2022/04/08 02:21:39;;;;;;;3.30;0.90;;;;;;;9.14;81.46;96773.73;4145276;85;21096;-84
2022/04/08 02:27:41;;;;;;;2.25;0.60;;;;;;;8.93;80.09;96763.19;4143081;85;21540;-86
2022/04/08 02:33:43;;;;;;;2.77;1.07;;;;;;;8.96;79.53;96788.28;4122075;85;21114;-84
2022/04/08 02:39:44;;;;;;;3.40;1.35;;;;;;;8.97;79.50;96785.13;4133997;85;21110;-86
2022/04/08 02:45:46;;;;;;;6.53;1.45;;;;;;;8.95;79.61;96787.53;4151786;85;21091;-85
2022/04/08 02:51:47;;;;;;;3.80;1.00;;;;;;;8.92;79.18;96795.19;4157422;85;21568;-83
2022/04/08 02:57:50;;;;;;;2.52;0.88;;;;;;;8.90;79.31;96803.59;4124236;85;21059;-84
2022/04/08 03:03:52;;;;;;;2.42;0.90;;;;;;;8.79;78.49;96813.91;4120506;85;21099;-85
2022/04/08 03:09:53;;;;;;;1.65;0.80;;;;;;;8.70;77.07;96812.31;4142046;85;21226;-84
2022/04/08 03:15:54;;;;;;;3.10;0.80;;;;;;;8.64;76.22;96839.30;4106231;85;47683;-86
2022/04/08 03:21:57;;;;;;;3.40;1.22;;;;;;;8.61;75.05;96840.13;4077574;86;22022;-85
2022/04/08 03:27:58;;;;;;;5.62;1.05;;;;;;;8.54;74.55;96855.22;4066133;86;21471;-85
2022/04/08 03:33:59;;;;;;;4.75;1.12;;;;;;;8.46;73.72;96876.95;4063311;86;21138;-86
2022/04/08 03:40:01;;;;;;;7.92;1.37;;;;;;;8.39;73.44;96893.42;4089071;86;21973;-83
2022/04/08 03:46:02;;;;;;;3.87;1.05;;;;;;;8.19;73.44;96904.74;4082458;86;21050;-85
2022/04/08 03:52:10;;;;;;;3.45;1.45;;;;;;;8.03;73.23;96917.59;4073223;86;21443;-85
2022/04/08 03:58:11;;;;;;;5.40;1.70;;;;;;;7.94;72.37;96928.80;4080985;86;21026;-86
2022/04/08 04:04:13;;;;;;;2.50;1.00;;;;;;;7.92;71.42;96946.91;4076679;86;21061;-86
2022/04/08 04:10:18;;;;;;;1.77;0.70;;;;;;;7.84;70.78;96944.11;4066335;86;21981;-84
2022/04/08 04:16:18;;;;;;;5.12;1.35;;;;;;;7.66;69.82;96966.64;4060339;86;21129;-84
2022/04/08 04:22:20;;;;;;;4.00;1.10;;;;;;;7.46;69.87;96974.42;4062803;86;21083;-85
2022/04/08 04:28:21;;;;;;;3.70;1.25;;;;;;;7.39;68.13;96982.06;4076812;86;21621;-85
2022/04/08 04:34:24;;;;;;;3.35;0.78;;;;;;;7.34;69.03;97000.78;4087396;86;21564;-86
2022/04/08 04:40:26;;;;;;;3.58;0.98;;;;;;;7.19;69.15;96992.52;4077328;86;21521;-84
2022/04/08 04:46:27;;;;;;;3.15;1.20;;;;;;;7.20;68.22;97004.39;4078765;86;21137;-86
2022/04/08 04:52:28;;;;;;;4.70;1.05;;;;;;;7.25;67.74;97008.03;4117279;85;21056;-86
2022/04/08 04:58:30;;;;;;;8.28;1.27;;;;;;;7.35;66.92;97022.16;4111289;85;21063;-85
2022/04/08 05:04:31;;;;;;;3.17;1.12;;;;;;;7.45;66.79;97028.11;4105696;85;21590;-86
2022/04/08 05:10:33;;;;;;;6.90;1.15;;;;;;;7.61;65.65;97033.04;4104123;85;21500;-84
2022/04/08 05:16:34;;;;;;;7.00;1.50;;;;;;;7.79;65.69;97037.15;4129258;85;21326;-84
2022/04/08 05:22:38;;;;;;;5.20;1.25;;;;;;;7.99;64.81;97048.23;4104133;85;21054;-85
2022/04/08 05:28:39;;;;;;;5.75;1.40;;;;;;;8.16;63.27;97056.81;4103462;85;22202;-84
2022/04/08 05:34:41;;;;;;;6.75;1.40;;;;;;;8.37;63.19;97060.72;4102360;85;21117;-87
2022/04/08 05:40:42;;;;;;;3.25;1.20;;;;;;;8.44;62.50;97059.27;4099711;85;21045;-85
2022/04/08 05:47:02;;;;;;;;;;;;;;;;;;;;;
2022/04/08 05:53:04;;;;;;;9.50;1.35;;;;;;;8.80;61.42;97085.55;4109317;85;21101;-86
2022/04/08 05:59:06;;;;;;;8.30;2.08;;;;;;;8.98;59.67;97080.63;4108512;85;21082;-85
2022/04/08 06:05:08;;;;;;;6.35;1.50;;;;;;;9.16;60.20;97098.92;4097004;85;21078;-85
2022/04/08 06:11:09;;;;;;;6.45;2.37;;;;;;;9.26;54.57;97105.59;4107285;85;22013;-85
2022/04/08 06:17:10;;;;;;;7.90;1.95;;;;;;;9.54;57.24;97099.73;4105725;85;21011;-85
2022/04/08 06:23:12;;;;;;;2.83;1.00;;;;;;;9.91;57.02;97113.02;4106314;85;21073;-85
2022/04/08 06:29:13;;;;;;;5.25;1.50;;;;;;;10.30;54.24;97121.36;4107559;85;21057;-85
2022/04/08 06:35:14;;;;;;;14.45;2.30;;;;;;;10.60;54.91;97126.69;3983600;88;21644;-84
2022/04/08 06:41:15;;;;;;;5.78;1.25;;;;;;;10.73;51.65;97137.16;3990084;88;21051;-85
2022/04/08 06:47:17;;;;;;;4.30;1.20;;;;;;;10.73;52.83;97127.00;4020197;88;21093;-85
2022/04/08 06:53:18;;;;;;;8.58;1.50;;;;;;;10.86;53.05;97141.62;4013841;87;21112;-86
2022/04/08 06:59:19;;;;;;;7.25;1.45;;;;;;;10.80;50.87;97151.52;3986582;87;21570;-86
2022/04/08 07:05:24;;;;;;;5.37;1.40;;;;;;;10.87;50.98;97151.36;3990041;88;21112;-86
2022/04/08 07:11:26;;;;;;;8.73;1.85;;;;;;;10.96;49.37;97164.50;4013601;88;21066;-86
2022/04/08 07:17:31;;;;;;;5.70;2.12;;;;;;;11.10;49.88;97177.30;4015167;87;21085;-85
2022/04/08 07:23:32;;;;;;;4.40;1.22;;;;;;;11.32;50.29;97185.09;4010049;87;21546;-84
2022/04/08 07:29:34;;;;;;;9.40;1.10;;;;;;;11.48;49.85;97192.77;4018458;88;21006;-86
2022/04/08 07:35:37;;;;;;;7.58;1.35;;;;;;;11.76;50.28;97199.03;4008388;88;21078;-86
2022/04/08 07:41:38;;;;;;;8.23;1.60;;;;;;;11.98;49.47;97206.20;4012891;87;21034;-86
2022/04/08 07:47:40;;;;;;;7.45;1.60;;;;;;;12.36;49.36;97219.58;4010549;88;21014;-86
2022/04/08 07:53:42;;;;;;;5.85;1.40;;;;;;;12.75;46.18;97241.35;4015188;87;21075;-87
2022/04/08 07:59:43;;;;;;;6.28;1.20;;;;;;;12.62;46.29;97234.41;4010108;87;21030;-87
2022/04/08 08:05:53;;;;;;;9.60;3.17;;;;;;;12.88;47.54;97232.59;4008523;87;21117;-87
2022/04/08 08:11:54;;;;;;;5.78;1.12;;;;;;;12.98;45.74;97243.91;4006448;88;21041;-87
2022/04/08 08:17:58;;;;;;;6.90;2.27;;;;;;;13.37;45.50;97249.76;4006049;88;21705;-87
2022/04/08 08:24:00;;;;;;;10.80;2.33;;;;;;;13.37;45.07;97258.78;4013310;87;21062;-86
2022/04/08 08:30:01;;;;;;;4.20;2.20;;;;;;;13.09;44.87;97272.50;4020455;88;21014;-87
2022/04/08 08:36:03;;;;;;;2.98;0.90;;;;;;;12.95;43.77;97278.33;4014945;88;21050;-86
2022/04/08 08:42:06;;;;;;;6.03;2.30;;;;;;;12.52;44.68;97284.87;4008944;88;21142;-86
2022/04/08 08:48:08;;;;;;;5.58;1.27;;;;;;;12.32;42.26;97289.63;4013510;87;21022;-85
2022/04/08 08:54:09;;;;;;;5.40;1.65;;;;;;;12.07;43.48;97310.01;4014924;87;21126;-86
2022/04/08 09:00:14;;;;;;;7.67;1.50;;;;;;;12.12;44.03;97321.83;4127239;85;21038;-86
2022/04/08 09:06:17;;;;;;;11.40;3.60;;;;;;;12.11;43.56;97320.29;4116606;85;21095;-84
2022/04/08 09:12:20;;;;;;;3.65;1.37;;;;;;;12.64;43.96;97334.96;4121737;85;21106;-86
2022/04/08 09:18:22;;;;;;;6.03;1.50;;;;;;;12.48;44.20;97335.55;4119523;85;21863;-86
2022/04/08 09:24:24;;;;;;;7.87;1.90;;;;;;;12.61;43.77;97330.33;4116083;85;21039;-85
2022/04/08 09:30:25;;;;;;;5.37;2.00;;;;;;;12.55;43.42;97336.16;4124345;85;21090;-84
2022/04/08 09:36:36;;;;;;;6.47;1.70;;;;;;;12.41;43.66;97346.09;4131748;85;21030;-85
2022/04/08 09:42:47;;;;;;;8.83;2.70;;;;;;;12.50;43.01;97336.66;4120860;85;22241;-87
2022/04/08 09:48:49;;;;;;;7.62;3.20;;;;;;;13.31;42.86;97339.44;4124094;85;21070;-86
2022/04/08 09:54:53;;;;;;;5.72;2.00;;;;;;;13.37;42.44;97343.20;4113728;85;21664;-85
2022/04/08 10:00:55;;;;;;;7.70;1.32;;;;;;;14.16;42.54;97334.48;4102983;85;21090;-85
2022/04/08 10:06:57;;;;;;;4.87;1.52;;;;;;;14.98;41.55;97340.43;4106807;85;21012;-87
2022/04/08 10:13:13;;;;;;;5.95;1.50;;;;;;;14.81;40.35;97339.80;4100900;85;21051;-84
2022/04/08 10:19:16;;;;;;;9.00;2.80;;;;;;;15.11;39.07;97324.66;4098995;85;21438;-85
2022/04/08 10:25:18;;;;;;;11.97;5.45;;;;;;;15.24;40.83;97326.16;4090704;85;21498;-86
2022/04/08 10:31:26;;;;;;;4.12;1.22;;;;;;;16.03;39.86;97329.11;4100147;85;21570;-85
2022/04/08 10:37:27;;;;;;;4.10;1.00;;;;;;;15.98;38.66;97340.13;4099237;85;21058;-86
2022/04/08 10:43:28;;;;;;;3.60;0.90;;;;;;;15.82;38.33;97342.31;4115752;85;21936;-85
2022/04/08 10:49:30;;;;;;;7.50;1.55;;;;;;;15.55;36.96;97335.97;4115283;85;21023;-87
2022/04/08 10:55:32;;;;;;;4.62;1.55;;;;;;;15.26;37.87;97351.89;4119827;85;20975;-85
2022/04/08 11:01:46;;;;;;;5.30;1.30;;;;;;;14.73;37.79;97376.26;4077575;85;21456;-87
2022/04/08 11:07:50;;;;;;;3.90;1.35;;;;;;;15.73;37.47;97358.77;4093983;85;21058;-87
2022/04/08 11:13:57;;;;;;;3.90;1.20;;;;;;;16.16;36.83;97361.56;4101108;85;21046;-86
2022/04/08 11:19:59;;;;;;;12.47;1.70;;;;;;;16.43;35.00;97362.48;4105841;85;21070;-85
2022/04/08 11:26:02;;;;;;;5.20;0.85;;;;;;;16.34;36.47;97368.56;4106739;85;21035;-85
2022/04/08 11:32:11;;;;;;;2.77;1.17;;;;;;;16.73;32.68;97371.41;4118821;85;21704;-85
2022/04/08 11:38:20;;;;;;;4.05;1.00;;;;;;;15.52;34.30;97376.83;4093389;85;21053;-85
2022/04/08 11:44:22;;;;;;;3.50;1.15;;;;;;;14.78;35.09;97377.09;4082259;85;21034;-85
2022/04/08 11:50:27;;;;;;;5.05;1.62;;;;;;;15.54;34.70;97365.53;4097365;85;21069;-84
2022/04/08 11:56:29;;;;;;;6.87;1.57;;;;;;;16.04;34.76;97374.80;4102370;85;21059;-85
2022/04/08 12:02:31;;;;;;;4.55;1.27;;;;;;;16.44;34.70;97354.97;4101132;85;21125;-86
2022/04/08 12:08:32;;;;;;;26.02;3.92;;;;;;;16.51;35.01;97341.69;4093963;85;21006;-85
2022/04/08 12:14:34;;;;;;;8.93;1.95;;;;;;;16.65;34.00;97334.23;4075406;86;20987;-84
2022/04/08 12:20:39;;;;;;;11.10;1.50;;;;;;;16.70;33.56;97348.05;4105877;85;21022;-86
2022/04/08 12:26:41;;;;;;;9.93;1.62;;;;;;;16.61;33.11;97332.23;4076390;85;21075;-84
2022/04/08 12:32:43;;;;;;;8.55;1.75;;;;;;;16.41;33.40;97333.78;4090748;86;21038;-84
2022/04/08 12:38:44;;;;;;;7.17;1.50;;;;;;;16.39;33.93;97329.31;4085715;86;21062;-84
2022/04/08 12:44:46;;;;;;;8.13;2.10;;;;;;;16.46;33.88;97320.80;4114067;86;21013;-85
2022/04/08 12:50:47;;;;;;;6.30;0.98;;;;;;;16.88;34.17;97311.58;4092238;85;21030;-85
2022/04/08 12:56:48;;;;;;;4.58;1.30;;;;;;;17.35;33.70;97306.30;4094132;85;21054;-83
2022/04/08 13:02:52;;;;;;;11.22;2.25;;;;;;;17.16;33.23;97307.65;4091369;85;21074;-86
2022/04/08 13:08:54;;;;;;;11.20;1.85;;;;;;;17.33;32.96;97297.69;4115012;85;20990;-85
2022/04/08 13:14:56;;;;;;;2.90;0.80;;;;;;;17.07;32.23;97292.43;4108105;85;21015;-84
2022/04/08 13:20:58;;;;;;;3.80;1.60;;;;;;;16.66;31.46;97284.64;4086073;85;21510;-84
2022/04/08 13:26:59;;;;;;;4.80;1.02;;;;;;;16.69;32.57;97274.69;4092412;85;21054;-85
2022/04/08 13:33:01;;;;;;;6.67;1.50;;;;;;;16.75;32.32;97256.29;4085427;85;21042;-84
2022/04/08 13:39:02;;;;;;;6.17;1.45;;;;;;;16.72;32.64;97255.82;4091661;85;21069;-85
2022/04/08 13:45:06;;;;;;;4.28;1.52;;;;;;;16.45;32.41;97254.34;4092820;85;21062;-84
2022/04/08 13:51:10;;;;;;;4.72;1.35;;;;;;;15.88;32.77;97244.69;4085485;85;21519;-85
2022/04/08 13:57:11;;;;;;;3.87;1.42;;;;;;;15.71;32.88;97231.58;4104927;85;21121;-85
2022/04/08 14:03:13;;;;;;;3.35;1.20;;;;;;;15.96;33.07;97221.13;4095697;85;21070;-85
2022/04/08 14:09:15;;;;;;;6.67;1.50;;;;;;;16.21;33.16;97205.75;4093995;85;21026;-85
2022/04/08 14:15:16;;;;;;;2.33;0.90;;;;;;;16.48;32.43;97205.10;4111915;85;21003;-85
2022/04/08 14:21:18;;;;;;;10.43;1.90;;;;;;;16.46;32.42;97191.00;4117212;85;20990;-86
2022/04/08 14:27:19;;;;;;;5.80;1.60;;;;;;;16.09;33.50;97190.07;4105248;85;21071;-84
2022/04/08 14:33:21;;;;;;;4.00;0.88;;;;;;;15.84;33.49;97185.34;4083266;85;21478;-85
2022/04/08 14:39:22;;;;;;;8.83;1.90;;;;;;;15.68;33.82;97171.95;4081068;85;21042;-84
2022/04/08 14:45:24;;;;;;;5.10;1.40;;;;;;;15.65;34.20;97167.34;4086006;85;21042;-85
2022/04/08 14:51:25;;;;;;;5.20;1.40;;;;;;;15.55;33.96;97157.47;4105300;85;21042;-85
2022/04/08 14:57:27;;;;;;;7.15;1.80;;;;;;;15.48;34.23;97143.95;4125573;84;101935;-85
2022/04/08 15:03:29;;;;;;;7.25;1.90;;;;;;;15.39;34.72;97137.63;4221127;83;22048;-85
2022/04/08 15:09:31;;;;;;;3.85;1.80;;;;;;;15.28;34.79;97123.43;4218469;83;21799;-85
2022/04/08 15:15:32;;;;;;;10.80;1.62;;;;;;;15.20;35.20;97124.31;4218150;83;21054;-86
2022/04/08 15:21:34;;;;;;;4.70;1.05;;;;;;;15.05;35.41;97127.41;4130364;84;21023;-85
2022/04/08 15:27:36;;;;;;;6.97;2.12;;;;;;;14.87;35.40;97132.79;4126230;85;21141;-85
2022/04/08 15:33:38;;;;;;;4.72;1.62;;;;;;;14.67;35.56;97133.70;4104988;85;21559;-85
2022/04/08 15:39:40;;;;;;;5.92;1.80;;;;;;;14.39;35.41;97133.89;4103919;85;21098;-83
2022/04/08 15:45:44;;;;;;;4.03;1.37;;;;;;;14.15;35.88;97143.09;4230157;83;21559;-85
2022/04/08 15:51:53;;;;;;;5.03;2.00;;;;;;;14.03;36.45;97139.75;4112077;85;21106;-85
2022/04/08 15:57:59;;;;;;;3.92;1.12;;;;;;;13.91;37.45;97159.77;4060838;85;21083;-85
2022/04/08 16:04:09;;;;;;;4.37;1.62;;;;;;;13.69;36.78;97166.53;4040764;86;21107;-87
2022/04/08 16:10:11;;;;;;;5.80;1.80;;;;;;;13.37;36.93;97166.72;4032492;86;21151;-87
2022/04/08 16:16:12;;;;;;;7.33;1.67;;;;;;;13.18;36.83;97183.36;4051050;86;21023;-85
2022/04/08 16:22:14;;;;;;;3.25;1.17;;;;;;;12.84;38.60;97205.84;4048814;86;21083;-86
2022/04/08 16:28:17;;;;;;;7.17;1.62;;;;;;;12.68;39.27;97225.08;4032778;86;21096;-85
2022/04/08 16:34:19;;;;;;;2.05;1.10;;;;;;;12.12;44.44;97237.41;4053184;86;21960;-86
2022/04/08 16:40:24;;;;;;;3.47;1.50;;;;;;;11.52;44.01;97265.31;4046273;86;21655;-87
2022/04/08 16:46:27;;;;;;;7.75;2.98;;;;;;;10.97;46.42;97283.76;4053658;86;21049;-85
2022/04/08 16:52:28;;;;;;;6.60;2.67;;;;;;;10.38;55.51;97275.95;4057050;86;21070;-86
2022/04/08 16:58:30;;;;;;;3.80;1.50;;;;;;;10.00;51.50;97286.83;4115537;85;21087;-86
2022/04/08 17:04:32;;;;;;;6.05;2.12;;;;;;;9.76;51.87;97289.29;4090503;85;21019;-88
2022/04/08 17:10:36;;;;;;;8.90;2.52;;;;;;;9.62;53.70;97285.37;4092167;85;21079;-87
2022/04/08 17:16:38;;;;;;;6.42;3.33;;;;;;;9.49;54.12;97277.72;4092231;85;21532;-86
2022/04/08 17:22:48;;;;;;;8.60;3.40;;;;;;;9.31;55.45;97274.44;4097813;85;21144;-88
2022/04/08 17:28:51;;;;;;;9.10;3.90;;;;;;;8.99;56.40;97278.69;4086581;85;21552;-88
2022/04/08 17:34:56;;;;;;;9.70;4.17;;;;;;;8.90;56.66;97273.70;4070285;85;22048;-87
2022/04/08 17:40:59;;;;;;;7.50;4.33;;;;;;;8.73;58.28;97277.95;4098680;85;21151;-87
2022/04/08 17:47:04;;;;;;;13.20;5.45;;;;;;;8.59;58.89;97282.95;4092874;85;21096;-87
2022/04/08 17:53:15;;;;;;;15.45;5.50;;;;;;;8.45;59.78;97280.34;4091684;85;21050;-87
2022/04/08 17:59:13;;;;;;;12.43;5.00;;;;;;;8.40;60.78;97265.77;4102273;85;21796;-87
2022/04/08 18:05:15;;;;;;;10.23;4.47;;;;;;;8.36;62.00;97259.58;3980779;85;10000243;-87
2022/04/08 18:11:17;;;;;;;9.25;4.20;;;;;;;8.22;62.28;97252.84;4096365;85;21082;-87
2022/04/08 18:17:19;;;;;;;11.20;4.83;;;;;;;8.28;63.17;97248.53;4091073;85;21063;-87
2022/04/08 18:23:20;;;;;;;10.28;4.67;;;;;;;8.36;63.64;97243.80;4091350;85;21067;-87
2022/04/08 18:29:22;;;;;;;9.73;4.85;;;;;;;8.39;63.72;97231.50;4097734;85;21009;-87
2022/04/08 18:35:24;;;;;;;8.13;4.20;;;;;;;8.24;64.40;97222.48;4104124;85;21042;-87
2022/04/08 18:41:25;;;;;;;10.63;4.37;;;;;;;8.10;64.74;97208.94;4202008;83;21002;-89
2022/04/08 18:47:26;;;;;;;8.80;3.77;;;;;;;7.93;65.37;97204.57;4145552;84;22065;-88
2022/04/08 18:53:28;;;;;;;10.60;4.22;;;;;;;7.79;65.80;97199.22;4134782;85;21965;-87
2022/04/08 18:59:30;;;;;;;8.15;4.45;;;;;;;7.73;66.87;97187.20;4057741;86;21111;-87
2022/04/08 19:05:32;;;;;;;17.48;8.83;;;;;;;7.67;67.29;97184.69;4115898;84;20979;-88
2022/04/08 19:11:34;;;;;;;49.15;21.82;;;;;;;7.72;67.97;97164.45;4145482;84;21039;-88
2022/04/08 19:17:36;;;;;;;34.05;16.32;;;;;;;7.66;68.44;97148.32;4135864;85;21645;-88
2022/04/08 19:23:37;;;;;;;23.62;12.07;;;;;;;7.63;68.88;97125.98;4135490;85;21082;-87
2022/04/08 19:29:39;;;;;;;14.65;7.70;;;;;;;7.43;70.73;97106.67;4079269;86;20988;-87
2022/04/08 19:35:43;;;;;;;10.78;5.40;;;;;;;7.27;70.80;97126.02;4075249;85;21519;-87
2022/04/08 19:41:44;;;;;;;13.20;7.12;;;;;;;7.10;71.18;97072.47;4094954;85;21078;-86
2022/04/08 19:47:49;;;;;;;11.75;6.37;;;;;;;7.07;71.93;97108.64;4092537;85;21071;-86
2022/04/08 19:53:50;;;;;;;15.08;8.13;;;;;;;6.88;73.53;97059.58;4104324;85;21063;-87
2022/04/08 19:59:52;;;;;;;14.25;7.58;;;;;;;6.88;73.52;97064.23;4069023;86;21059;-85
2022/04/08 20:05:54;;;;;;;22.73;10.03;;;;;;;6.80;75.59;97107.02;4071138;86;21561;-87
2022/04/08 20:11:56;;;;;;;15.43;8.10;;;;;;;6.77;75.47;97063.52;4152149;84;20987;-88
2022/04/08 20:17:59;;;;;;;17.48;7.92;;;;;;;6.84;75.52;97026.20;4158817;84;21530;-87
2022/04/08 20:24:02;;;;;;;18.70;9.30;;;;;;;6.88;76.44;97069.67;4150413;84;21579;-88
2022/04/08 20:30:08;;;;;;;23.57;9.30;;;;;;;6.86;77.88;96994.52;4160505;84;21142;-87
2022/04/08 20:36:09;;;;;;;31.55;14.03;;;;;;;6.84;77.92;97029.50;4164183;84;20967;-87
2022/04/08 20:42:11;;;;;;;40.60;17.20;;;;;;;6.76;77.30;97011.67;4156555;84;21071;-88
2022/04/08 20:48:12;;;;;;;33.40;13.10;;;;;;;6.84;77.23;96990.06;4077086;86;21126;-87
2022/04/08 20:54:14;;;;;;;29.72;10.30;;;;;;;6.77;77.57;96988.73;4155812;84;21539;-88
2022/04/08 21:00:17;;;;;;;11.90;6.85;;;;;;;6.71;77.84;96969.94;4125089;85;21121;-87
2022/04/08 21:06:19;;;;;;;11.53;8.05;;;;;;;6.74;79.32;96996.33;4132999;85;21035;-88
2022/04/08 21:12:20;;;;;;;16.02;8.13;;;;;;;6.69;78.97;96970.33;4096328;85;21981;-89
2022/04/08 21:18:21;;;;;;;22.15;9.75;;;;;;;6.76;79.23;96944.47;4091725;85;21670;-87
2022/04/08 21:24:23;;;;;;;29.00;10.88;;;;;;;6.72;79.23;96949.14;4101031;85;21019;-87
2022/04/08 21:30:24;;;;;;;30.20;13.08;;;;;;;6.71;79.63;96947.61;4096674;85;21074;-88
2022/04/08 21:36:25;;;;;;;16.48;9.68;;;;;;;6.69;80.23;96926.83;4096430;85;21531;-88
2022/04/08 21:42:27;;;;;;;26.62;11.93;;;;;;;6.67;82.33;96941.40;4091969;85;21082;-87
2022/04/08 21:48:30;;;;;;;25.97;11.80;;;;;;;6.64;81.71;96925.89;4092439;85;21669;-88
2022/04/08 21:54:31;;;;;;;17.50;9.13;;;;;;;6.64;81.66;96915.01;4131931;85;21141;-87
2022/04/08 22:00:35;;;;;;;25.85;12.98;;;;;;;6.69;82.22;96894.81;4130711;85;22314;-87
2022/04/08 22:06:37;;;;;;;34.85;16.65;;;;;;;6.69;82.28;96904.33;4093112;85;21054;-87
2022/04/08 22:12:38;;;;;;;27.20;13.40;;;;;;;6.74;82.37;96920.19;4097548;85;21968;-88
2022/04/08 22:18:39;;;;;;;21.75;12.07;;;;;;;6.85;82.79;96934.48;4096414;85;21039;-88
2022/04/08 22:24:41;;;;;;;15.53;9.33;;;;;;;6.95;82.63;96928.20;4091991;85;21503;-87
2022/04/08 22:30:42;;;;;;;16.73;10.23;;;;;;;6.97;82.66;96917.71;4093135;85;21154;-88
2022/04/08 22:36:44;;;;;;;20.62;10.08;;;;;;;6.94;83.24;96927.42;4090545;85;21088;-87
2022/04/08 22:42:45;;;;;;;19.73;11.05;;;;;;;6.94;84.26;96917.16;4092686;85;21103;-86
2022/04/08 22:48:48;;;;;;;22.55;12.60;;;;;;;6.91;84.18;96924.73;4096992;85;21099;-87
2022/04/08 22:54:50;;;;;;;19.82;12.30;;;;;;;7.00;83.90;96887.73;4095098;85;21149;-86
2022/04/08 23:00:51;;;;;;;19.55;12.05;;;;;;;7.01;83.92;96896.68;4097791;85;21764;-87
2022/04/08 23:06:56;;;;;;;21.97;13.65;;;;;;;7.06;84.30;96891.59;4093945;85;21082;-86
2022/04/08 23:12:56;;;;;;;16.52;11.88;;;;;;;7.16;84.04;96891.29;4092645;85;21540;-86
2022/04/08 23:18:57;;;;;;;29.90;13.98;;;;;;;6.95;84.07;96894.21;4096496;85;21491;-87
2022/04/08 23:24:59;;;;;;;13.03;8.88;;;;;;;6.87;84.56;96892.72;4092426;85;21571;-87
2022/04/08 23:31:00;;;;;;;12.00;8.08;;;;;;;6.85;84.85;96878.16;4092841;85;21824;-87
2022/04/08 23:37:02;;;;;;;32.55;10.82;;;;;;;6.93;85.33;96898.69;4092041;85;21169;-87
2022/04/08 23:43:04;;;;;;;13.20;8.20;;;;;;;6.99;85.35;96896.30;4093560;85;21089;-87
2022/04/08 23:49:06;;;;;;;14.40;9.20;;;;;;;7.02;85.60;96870.44;4092389;85;21075;-87
2022/04/08 23:55:08;;;;;;;13.85;9.70;;;;;;;7.03;85.20;96859.73;4098436;85;21056;-87
